Aérodrome :
LOGIN :

S'inscrire | Disclaimer

   EN    FR    IT 

 










Légende :    VFR   VFR Marginal   IFR   IFR Intensif   IFR Très Intensif
Visi : 
Plafond : 
>= 8 km
>= 3000ft
5 à 8 km
1000 à 3000 ft
1500m à 5 km
500 à 1000 ft
800 à 1500m
200 à 500 ft
< 800m
< 200 ft
Symboles :   Orages  Brouillard  Fortes neiges  Fortes précipitations  Vent > 20 kt
SIGMETs :   Divers  Orages  Givrage  Turbulence  Onde Orograph.  Cendres Volcan.







- Altitude de l'aérodrome : 209 ft
- Code IATA : CLY
- Voir les cartes d'approche


LFKC - Calvi

DERNIER METAR :
  • 260100Z AUTO 02014KT 9999 FEW020 SCT064 BKN078 03/00 Q1005

METARs EXPIRÉS :
  • 260030Z AUTO 02013KT 9999 -DZ BKN018 BKN027 BKN062 03/01 Q1005
  • 260000Z AUTO 01013KT 330V050 9999 BKN017 BKN027 BKN054 03/01 Q1006
  • 252330Z AUTO 01014KT 340V040 9999 -RA SCT014 BKN020 BKN034 03/01 Q1005
  • 252300Z AUTO 01011KT 320V050 9999 -RA BKN015 BKN021 BKN031 03/01 Q1006
  • 252230Z AUTO 03010KT 340V070 9999 -RADZ SCT014 BKN020 BKN028 04/02 Q1006

TAF TAF LFKC
Valide du 25 à 15h jusqu'au 26 à 15h UTC


251400Z 2515/2615 04012KT 9999 BKN012 BKN020 BKN030
TEMPO 2515/2612 04010G20KT SHRA SCT020TCU
BECMG 2612/2615 NSW TX05/2518Z TN01/2606Z
ATIS : +33 4 95 65 82 49
Pas de NOTAMs connus pour ce terrain.
1 SIGMET publié pour la FIR Marseille (LFMM) :
 
Turbulence forte
LFMM SIGMET 5 VALID 260000/260400 LFPW
LFMM MARSEILLE FIR/UIR SEV TURB FCST WI N4500 E00415 - N4500 E00515 - N4230 E00530 - N4230 E00415 - N4500 E00415 SFC/FL050 STNR NC=



MET'MAP, la Météo Aéronautique d'un coup d'oeil ! - Copyright ORBIFLY Décembre 2007 - Disclaimer

ORBIFLY MET'MAP TEAM :

Programmation & Développement : Alexandra Zaïnal
Conception & Développement : Baudouin d'Aumeries
Co-Programmation & Développement : Marc-Olivier Méhu
Soutien technique & logistique : Manuel Goepfert

Contact : metmap@orbifly.com




SOURCES & CREDITS :

   NOAA